sensor_id;sensor_type;location;lat;lon;timestamp;temperature;humidity
22923;DHT22;11627;51.322;22.816;2024-02-26T00:01:46;8.60;99.90
22923;DHT22;11627;51.322;22.816;2024-02-26T00:04:12;8.70;99.90
22923;DHT22;11627;51.322;22.816;2024-02-26T00:06:38;8.70;99.90
22923;DHT22;11627;51.322;22.816;2024-02-26T00:09:08;8.70;99.90
22923;DHT22;11627;51.322;22.816;2024-02-26T00:11:37;8.50;99.90
22923;DHT22;11627;51.322;22.816;2024-02-26T00:14:05;8.80;99.90
22923;DHT22;11627;51.322;22.816;2024-02-26T00:16:31;8.30;99.90
22923;DHT22;11627;51.322;22.816;2024-02-26T00:18:57;8.50;99.90
22923;DHT22;11627;51.322;22.816;2024-02-26T00:21:23;8.40;99.90
22923;DHT22;11627;51.322;22.816;2024-02-26T00:23:53;8.60;99.90
22923;DHT22;11627;51.322;22.816;2024-02-26T00:28:45;8.60;99.90
22923;DHT22;11627;51.322;22.816;2024-02-26T00:31:12;8.70;99.90
22923;DHT22;11627;51.322;22.816;2024-02-26T00:33:39;8.90;99.90
22923;DHT22;11627;51.322;22.816;2024-02-26T00:36:05;8.40;99.90
22923;DHT22;11627;51.322;22.816;2024-02-26T00:38:32;8.30;99.90
22923;DHT22;11627;51.322;22.816;2024-02-26T00:43:25;8.50;99.90
22923;DHT22;11627;51.322;22.816;2024-02-26T00:45:51;8.80;99.90
22923;DHT22;11627;51.322;22.816;2024-02-26T00:48:18;8.70;99.90
22923;DHT22;11627;51.322;22.816;2024-02-26T00:50:43;8.50;99.90
22923;DHT22;11627;51.322;22.816;2024-02-26T00:53:09;8.50;99.90
22923;DHT22;11627;51.322;22.816;2024-02-26T00:55:35;8.40;99.90
22923;DHT22;11627;51.322;22.816;2024-02-26T01:00:28;8.30;99.90
22923;DHT22;11627;51.322;22.816;2024-02-26T01:02:54;8.70;99.90
22923;DHT22;11627;51.322;22.816;2024-02-26T01:10:12;8.70;99.90
22923;DHT22;11627;51.322;22.816;2024-02-26T01:12:39;8.20;99.90
22923;DHT22;11627;51.322;22.816;2024-02-26T01:15:06;8.60;99.90
22923;DHT22;11627;51.322;22.816;2024-02-26T01:19:58;8.40;99.90
22923;DHT22;11627;51.322;22.816;2024-02-26T01:22:24;8.50;99.90
22923;DHT22;11627;51.322;22.816;2024-02-26T01:24:51;8.40;99.90
22923;DHT22;11627;51.322;22.816;2024-02-26T01:27:18;8.50;99.90
22923;DHT22;11627;51.322;22.816;2024-02-26T01:29:46;8.20;99.90
22923;DHT22;11627;51.322;22.816;2024-02-26T01:34:38;8.50;99.90
22923;DHT22;11627;51.322;22.816;2024-02-26T01:37:04;8.80;99.90
22923;DHT22;11627;51.322;22.816;2024-02-26T01:39:30;8.30;99.90
22923;DHT22;11627;51.322;22.816;2024-02-26T01:41:55;8.20;99.90
22923;DHT22;11627;51.322;22.816;2024-02-26T01:44:23;8.30;99.90
22923;DHT22;11627;51.322;22.816;2024-02-26T01:46:49;8.20;99.90
22923;DHT22;11627;51.322;22.816;2024-02-26T01:49:16;8.40;99.90
22923;DHT22;11627;51.322;22.816;2024-02-26T01:51:43;8.40;99.90
22923;DHT22;11627;51.322;22.816;2024-02-26T01:56:37;8.50;99.90
22923;DHT22;11627;51.322;22.816;2024-02-26T01:59:05;8.50;99.90
22923;DHT22;11627;51.322;22.816;2024-02-26T02:01:33;8.90;99.90
22923;DHT22;11627;51.322;22.816;2024-02-26T02:04:00;8.20;99.90
22923;DHT22;11627;51.322;22.816;2024-02-26T02:06:28;8.30;99.90
22923;DHT22;11627;51.322;22.816;2024-02-26T02:08:57;8.30;99.90
22923;DHT22;11627;51.322;22.816;2024-02-26T02:11:23;8.20;99.90
22923;DHT22;11627;51.322;22.816;2024-02-26T02:13:49;8.30;99.90
22923;DHT22;11627;51.322;22.816;2024-02-26T02:21:07;8.40;99.90
22923;DHT22;11627;51.322;22.816;2024-02-26T02:23:33;8.40;99.90
22923;DHT22;11627;51.322;22.816;2024-02-26T02:25:59;8.50;99.90
22923;DHT22;11627;51.322;22.816;2024-02-26T02:28:27;8.10;99.90
22923;DHT22;11627;51.322;22.816;2024-02-26T02:30:54;8.40;99.90
22923;DHT22;11627;51.322;22.816;2024-02-26T02:33:21;8.30;99.90
22923;DHT22;11627;51.322;22.816;2024-02-26T02:35:48;8.50;99.90
22923;DHT22;11627;51.322;22.816;2024-02-26T02:38:17;8.20;99.90
22923;DHT22;11627;51.322;22.816;2024-02-26T02:43:09;8.30;99.90
22923;DHT22;11627;51.322;22.816;2024-02-26T02:45:35;8.40;99.90
22923;DHT22;11627;51.322;22.816;2024-02-26T02:48:01;8.50;99.90
22923;DHT22;11627;51.322;22.816;2024-02-26T02:55:20;8.20;99.90
22923;DHT22;11627;51.322;22.816;2024-02-26T02:57:46;8.20;99.90
22923;DHT22;11627;51.322;22.816;2024-02-26T03:00:12;7.90;99.90
22923;DHT22;11627;51.322;22.816;2024-02-26T03:02:38;8.00;99.90
22923;DHT22;11627;51.322;22.816;2024-02-26T03:05:06;8.40;99.90
22923;DHT22;11627;51.322;22.816;2024-02-26T03:10:02;7.90;99.90
22923;DHT22;11627;51.322;22.816;2024-02-26T03:14:55;8.00;99.90
22923;DHT22;11627;51.322;22.816;2024-02-26T03:17:21;7.90;99.90
22923;DHT22;11627;51.322;22.816;2024-02-26T03:19:49;8.40;99.90
22923;DHT22;11627;51.322;22.816;2024-02-26T03:22:20;8.00;99.90
22923;DHT22;11627;51.322;22.816;2024-02-26T03:24:47;8.20;99.90
22923;DHT22;11627;51.322;22.816;2024-02-26T03:27:15;7.90;99.90
22923;DHT22;11627;51.322;22.816;2024-02-26T03:29:41;8.10;99.90
22923;DHT22;11627;51.322;22.816;2024-02-26T03:34:33;8.30;99.90
22923;DHT22;11627;51.322;22.816;2024-02-26T03:37:00;7.90;99.90
22923;DHT22;11627;51.322;22.816;2024-02-26T03:39:27;8.30;99.90
22923;DHT22;11627;51.322;22.816;2024-02-26T03:44:19;7.90;99.90
22923;DHT22;11627;51.322;22.816;2024-02-26T03:46:45;8.20;99.90
22923;DHT22;11627;51.322;22.816;2024-02-26T03:49:12;8.10;99.90
22923;DHT22;11627;51.322;22.816;2024-02-26T03:51:39;8.00;99.90
22923;DHT22;11627;51.322;22.816;2024-02-26T03:54:04;8.20;99.90
22923;DHT22;11627;51.322;22.816;2024-02-26T03:56:30;8.10;99.90
22923;DHT22;11627;51.322;22.816;2024-02-26T04:01:24;8.00;99.90
22923;DHT22;11627;51.322;22.816;2024-02-26T04:03:50;7.90;99.90
22923;DHT22;11627;51.322;22.816;2024-02-26T04:06:18;8.10;99.90
22923;DHT22;11627;51.322;22.816;2024-02-26T04:08:47;8.20;99.90
22923;DHT22;11627;51.322;22.816;2024-02-26T04:11:15;8.10;99.90
22923;DHT22;11627;51.322;22.816;2024-02-26T04:13:45;8.40;99.90
22923;DHT22;11627;51.322;22.816;2024-02-26T04:16:13;7.20;99.90
22923;DHT22;11627;51.322;22.816;2024-02-26T04:18:40;8.10;99.90
22923;DHT22;11627;51.322;22.816;2024-02-26T04:23:32;8.10;99.90
22923;DHT22;11627;51.322;22.816;2024-02-26T04:25:58;8.30;99.90
22923;DHT22;11627;51.322;22.816;2024-02-26T04:28:24;8.10;99.90
22923;DHT22;11627;51.322;22.816;2024-02-26T04:30:55;9.30;99.90
22923;DHT22;11627;51.322;22.816;2024-02-26T04:33:21;8.40;99.90
22923;DHT22;11627;51.322;22.816;2024-02-26T04:35:47;8.10;99.90
22923;DHT22;11627;51.322;22.816;2024-02-26T04:40:39;8.20;99.90
22923;DHT22;11627;51.322;22.816;2024-02-26T04:43:05;8.30;99.90
22923;DHT22;11627;51.322;22.816;2024-02-26T04:47:59;8.00;99.90
22923;DHT22;11627;51.322;22.816;2024-02-26T04:50:25;8.20;99.90
22923;DHT22;11627;51.322;22.816;2024-02-26T04:52:51;8.00;99.90
22923;DHT22;11627;51.322;22.816;2024-02-26T04:57:44;8.10;99.90
22923;DHT22;11627;51.322;22.816;2024-02-26T05:00:11;8.10;99.90
22923;DHT22;11627;51.322;22.816;2024-02-26T05:02:37;8.60;99.90
22923;DHT22;11627;51.322;22.816;2024-02-26T05:05:06;8.10;99.90
22923;DHT22;11627;51.322;22.816;2024-02-26T05:07:40;8.10;99.90
22923;DHT22;11627;51.322;22.816;2024-02-26T05:12:35;8.10;99.90
22923;DHT22;11627;51.322;22.816;2024-02-26T05:15:02;8.20;99.90
22923;DHT22;11627;51.322;22.816;2024-02-26T05:17:28;8.00;99.90
22923;DHT22;11627;51.322;22.816;2024-02-26T05:24:46;7.80;99.90
22923;DHT22;11627;51.322;22.816;2024-02-26T05:27:14;8.20;99.90
22923;DHT22;11627;51.322;22.816;2024-02-26T05:32:06;8.10;99.90
22923;DHT22;11627;51.322;22.816;2024-02-26T05:37:00;8.30;99.90
22923;DHT22;11627;51.322;22.816;2024-02-26T05:41:53;8.20;99.90
22923;DHT22;11627;51.322;22.816;2024-02-26T05:44:20;7.90;99.90
22923;DHT22;11627;51.322;22.816;2024-02-26T05:54:04;8.20;99.90
22923;DHT22;11627;51.322;22.816;2024-02-26T05:56:31;7.80;99.90
22923;DHT22;11627;51.322;22.816;2024-02-26T06:01:26;8.40;99.90
22923;DHT22;11627;51.322;22.816;2024-02-26T06:03:53;8.00;99.90
22923;DHT22;11627;51.322;22.816;2024-02-26T06:06:19;8.40;99.90
22923;DHT22;11627;51.322;22.816;2024-02-26T06:08:47;8.00;99.90
22923;DHT22;11627;51.322;22.816;2024-02-26T06:11:14;8.20;99.90
22923;DHT22;11627;51.322;22.816;2024-02-26T06:13:40;8.00;99.90
22923;DHT22;11627;51.322;22.816;2024-02-26T06:16:08;8.20;99.90
22923;DHT22;11627;51.322;22.816;2024-02-26T06:18:34;8.10;99.90
22923;DHT22;11627;51.322;22.816;2024-02-26T06:23:26;8.00;99.90
22923;DHT22;11627;51.322;22.816;2024-02-26T06:25:52;8.00;99.90
22923;DHT22;11627;51.322;22.816;2024-02-26T06:28:19;8.30;99.90
22923;DHT22;11627;51.322;22.816;2024-02-26T06:30:45;8.10;99.90
22923;DHT22;11627;51.322;22.816;2024-02-26T06:33:11;8.10;99.90
22923;DHT22;11627;51.322;22.816;2024-02-26T06:35:38;8.30;99.90
22923;DHT22;11627;51.322;22.816;2024-02-26T06:50:17;8.10;99.90
22923;DHT22;11627;51.322;22.816;2024-02-26T06:52:44;8.20;99.90
22923;DHT22;11627;51.322;22.816;2024-02-26T06:55:11;8.20;99.90
22923;DHT22;11627;51.322;22.816;2024-02-26T06:57:38;8.20;99.90
22923;DHT22;11627;51.322;22.816;2024-02-26T07:00:05;8.30;99.90
22923;DHT22;11627;51.322;22.816;2024-02-26T07:02:32;8.20;99.90
22923;DHT22;11627;51.322;22.816;2024-02-26T07:04:59;8.10;99.90
22923;DHT22;11627;51.322;22.816;2024-02-26T07:07:25;8.10;99.90
22923;DHT22;11627;51.322;22.816;2024-02-26T07:09:51;8.50;99.90
22923;DHT22;11627;51.322;22.816;2024-02-26T07:14:45;8.10;99.90
22923;DHT22;11627;51.322;22.816;2024-02-26T07:17:12;8.20;99.90
22923;DHT22;11627;51.322;22.816;2024-02-26T07:24:32;8.20;99.90
22923;DHT22;11627;51.322;22.816;2024-02-26T07:26:58;8.60;99.90
22923;DHT22;11627;51.322;22.816;2024-02-26T07:31:51;8.30;99.90
22923;DHT22;11627;51.322;22.816;2024-02-26T07:34:17;8.20;99.90
22923;DHT22;11627;51.322;22.816;2024-02-26T07:36:43;8.40;99.90
22923;DHT22;11627;51.322;22.816;2024-02-26T07:41:36;8.20;99.90
22923;DHT22;11627;51.322;22.816;2024-02-26T07:44:04;8.60;99.90
22923;DHT22;11627;51.322;22.816;2024-02-26T07:51:27;8.60;99.90
22923;DHT22;11627;51.322;22.816;2024-02-26T07:53:52;8.80;99.90
22923;DHT22;11627;51.322;22.816;2024-02-26T07:58:44;9.00;99.90
22923;DHT22;11627;51.322;22.816;2024-02-26T08:01:14;9.10;99.90
22923;DHT22;11627;51.322;22.816;2024-02-26T08:03:42;8.80;99.90
22923;DHT22;11627;51.322;22.816;2024-02-26T08:06:10;9.40;99.90
22923;DHT22;11627;51.322;22.816;2024-02-26T08:08:36;9.50;99.90
22923;DHT22;11627;51.322;22.816;2024-02-26T08:11:03;9.60;99.90
22923;DHT22;11627;51.322;22.816;2024-02-26T08:13:29;9.30;99.90
22923;DHT22;11627;51.322;22.816;2024-02-26T08:15:56;9.50;99.90
22923;DHT22;11627;51.322;22.816;2024-02-26T08:18:21;9.30;99.90
22923;DHT22;11627;51.322;22.816;2024-02-26T08:20:48;9.10;99.90
22923;DHT22;11627;51.322;22.816;2024-02-26T08:23:14;9.20;99.90
22923;DHT22;11627;51.322;22.816;2024-02-26T08:28:08;9.30;99.90
22923;DHT22;11627;51.322;22.816;2024-02-26T08:30:35;9.50;99.90
22923;DHT22;11627;51.322;22.816;2024-02-26T08:33:00;9.60;99.90
22923;DHT22;11627;51.322;22.816;2024-02-26T08:35:26;10.00;99.90
22923;DHT22;11627;51.322;22.816;2024-02-26T08:37:52;10.30;99.90
22923;DHT22;11627;51.322;22.816;2024-02-26T08:40:18;10.40;99.90
22923;DHT22;11627;51.322;22.816;2024-02-26T08:45:12;10.60;99.90
22923;DHT22;11627;51.322;22.816;2024-02-26T08:47:38;11.10;99.90
22923;DHT22;11627;51.322;22.816;2024-02-26T08:50:05;10.90;99.90
22923;DHT22;11627;51.322;22.816;2024-02-26T08:52:33;10.80;99.90
22923;DHT22;11627;51.322;22.816;2024-02-26T08:55:01;11.20;99.90
22923;DHT22;11627;51.322;22.816;2024-02-26T08:59:54;11.00;99.90
22923;DHT22;11627;51.322;22.816;2024-02-26T09:02:21;10.80;99.90
22923;DHT22;11627;51.322;22.816;2024-02-26T09:04:49;11.00;99.90
22923;DHT22;11627;51.322;22.816;2024-02-26T09:07:20;11.20;99.90
22923;DHT22;11627;51.322;22.816;2024-02-26T09:12:13;11.10;99.90
22923;DHT22;11627;51.322;22.816;2024-02-26T09:17:05;10.90;99.90
22923;DHT22;11627;51.322;22.816;2024-02-26T09:21:59;10.40;99.90
22923;DHT22;11627;51.322;22.816;2024-02-26T09:26:52;10.40;99.90
22923;DHT22;11627;51.322;22.816;2024-02-26T09:29:18;10.30;99.90
22923;DHT22;11627;51.322;22.816;2024-02-26T09:31:44;10.50;99.90
22923;DHT22;11627;51.322;22.816;2024-02-26T09:34:13;10.30;99.90
22923;DHT22;11627;51.322;22.816;2024-02-26T09:36:39;10.70;99.90
22923;DHT22;11627;51.322;22.816;2024-02-26T09:39:06;10.90;99.90
22923;DHT22;11627;51.322;22.816;2024-02-26T09:41:37;11.30;99.90
22923;DHT22;11627;51.322;22.816;2024-02-26T09:44:05;11.30;99.90
22923;DHT22;11627;51.322;22.816;2024-02-26T09:46:31;11.50;99.90
22923;DHT22;11627;51.322;22.816;2024-02-26T09:48:58;11.70;99.90
22923;DHT22;11627;51.322;22.816;2024-02-26T09:51:26;11.60;99.90
22923;DHT22;11627;51.322;22.816;2024-02-26T09:53:53;12.00;99.90
22923;DHT22;11627;51.322;22.816;2024-02-26T09:56:21;11.30;99.90
22923;DHT22;11627;51.322;22.816;2024-02-26T10:01:18;11.20;99.90
22923;DHT22;11627;51.322;22.816;2024-02-26T10:03:44;11.30;99.90
22923;DHT22;11627;51.322;22.816;2024-02-26T10:06:13;11.30;99.90
22923;DHT22;11627;51.322;22.816;2024-02-26T10:08:40;10.70;99.90
22923;DHT22;11627;51.322;22.816;2024-02-26T10:11:07;10.70;99.90
22923;DHT22;11627;51.322;22.816;2024-02-26T10:13:35;10.60;99.90
22923;DHT22;11627;51.322;22.816;2024-02-26T10:16:04;10.90;99.90
22923;DHT22;11627;51.322;22.816;2024-02-26T10:18:49;11.10;99.90
22923;DHT22;11627;51.322;22.816;2024-02-26T10:21:20;11.20;99.90
22923;DHT22;11627;51.322;22.816;2024-02-26T10:26:19;11.30;99.90
22923;DHT22;11627;51.322;22.816;2024-02-26T10:28:46;11.40;99.90
22923;DHT22;11627;51.322;22.816;2024-02-26T10:31:14;11.40;99.90
22923;DHT22;11627;51.322;22.816;2024-02-26T10:33:41;11.40;99.90
22923;DHT22;11627;51.322;22.816;2024-02-26T10:36:08;11.40;99.90
22923;DHT22;11627;51.322;22.816;2024-02-26T10:38:35;11.60;99.90
22923;DHT22;11627;51.322;22.816;2024-02-26T10:41:06;11.70;99.90
22923;DHT22;11627;51.322;22.816;2024-02-26T10:43:35;11.80;99.90
22923;DHT22;11627;51.322;22.816;2024-02-26T10:46:01;12.00;99.90
22923;DHT22;11627;51.322;22.816;2024-02-26T10:48:29;12.10;99.90
22923;DHT22;11627;51.322;22.816;2024-02-26T10:50:57;12.20;99.90
22923;DHT22;11627;51.322;22.816;2024-02-26T10:53:25;12.20;99.90
22923;DHT22;11627;51.322;22.816;2024-02-26T10:55:57;12.40;99.90
22923;DHT22;11627;51.322;22.816;2024-02-26T10:58:25;12.40;99.90
22923;DHT22;11627;51.322;22.816;2024-02-26T11:00:56;12.40;99.90
22923;DHT22;11627;51.322;22.816;2024-02-26T11:03:23;12.50;99.90
22923;DHT22;11627;51.322;22.816;2024-02-26T11:05:52;12.50;99.90
22923;DHT22;11627;51.322;22.816;2024-02-26T11:08:23;12.50;99.90
22923;DHT22;11627;51.322;22.816;2024-02-26T11:10:53;12.60;99.90
22923;DHT22;11627;51.322;22.816;2024-02-26T11:13:23;12.50;99.90
22923;DHT22;11627;51.322;22.816;2024-02-26T11:15:56;12.40;99.90
22923;DHT22;11627;51.322;22.816;2024-02-26T11:18:32;12.60;99.90
22923;DHT22;11627;51.322;22.816;2024-02-26T11:21:00;12.60;99.90
22923;DHT22;11627;51.322;22.816;2024-02-26T11:23:37;12.70;99.90
22923;DHT22;11627;51.322;22.816;2024-02-26T11:26:08;12.70;99.90
22923;DHT22;11627;51.322;22.816;2024-02-26T11:28:37;12.80;99.90
22923;DHT22;11627;51.322;22.816;2024-02-26T11:31:06;12.80;99.90
22923;DHT22;11627;51.322;22.816;2024-02-26T11:33:34;12.80;99.90
22923;DHT22;11627;51.322;22.816;2024-02-26T11:36:11;12.80;99.90
22923;DHT22;11627;51.322;22.816;2024-02-26T11:38:39;12.90;99.90
22923;DHT22;11627;51.322;22.816;2024-02-26T11:41:06;12.90;99.90
22923;DHT22;11627;51.322;22.816;2024-02-26T11:44:01;13.00;99.90
22923;DHT22;11627;51.322;22.816;2024-02-26T11:46:38;13.00;99.90
22923;DHT22;11627;51.322;22.816;2024-02-26T11:51:57;13.10;99.90
22923;DHT22;11627;51.322;22.816;2024-02-26T11:57:40;13.20;99.90
22923;DHT22;11627;51.322;22.816;2024-02-26T12:03:07;13.30;99.90
22923;DHT22;11627;51.322;22.816;2024-02-26T12:08:06;13.30;99.90
22923;DHT22;11627;51.322;22.816;2024-02-26T12:10:39;13.30;99.90
22923;DHT22;11627;51.322;22.816;2024-02-26T12:13:09;13.30;99.90
22923;DHT22;11627;51.322;22.816;2024-02-26T12:16:03;13.30;99.90
22923;DHT22;11627;51.322;22.816;2024-02-26T12:18:32;13.30;99.90
22923;DHT22;11627;51.322;22.816;2024-02-26T12:21:02;13.30;99.90
22923;DHT22;11627;51.322;22.816;2024-02-26T12:23:32;13.30;99.90
22923;DHT22;11627;51.322;22.816;2024-02-26T12:26:01;13.30;99.90
22923;DHT22;11627;51.322;22.816;2024-02-26T12:28:29;13.30;99.90
22923;DHT22;11627;51.322;22.816;2024-02-26T12:30:58;13.30;99.90
22923;DHT22;11627;51.322;22.816;2024-02-26T12:33:27;13.30;99.90
22923;DHT22;11627;51.322;22.816;2024-02-26T12:35:54;13.30;99.90
22923;DHT22;11627;51.322;22.816;2024-02-26T12:38:20;13.30;99.90
22923;DHT22;11627;51.322;22.816;2024-02-26T12:40:47;13.20;99.90
22923;DHT22;11627;51.322;22.816;2024-02-26T12:43:15;13.30;99.90
22923;DHT22;11627;51.322;22.816;2024-02-26T12:45:43;13.30;99.90
22923;DHT22;11627;51.322;22.816;2024-02-26T12:48:13;13.20;99.90
22923;DHT22;11627;51.322;22.816;2024-02-26T12:50:39;13.20;96.70
22923;DHT22;11627;51.322;22.816;2024-02-26T12:53:05;13.20;92.40
22923;DHT22;11627;51.322;22.816;2024-02-26T12:55:32;13.20;91.00
22923;DHT22;11627;51.322;22.816;2024-02-26T12:58:03;13.20;88.40
22923;DHT22;11627;51.322;22.816;2024-02-26T13:00:30;13.20;84.80
22923;DHT22;11627;51.322;22.816;2024-02-26T13:02:57;13.20;73.30
22923;DHT22;11627;51.322;22.816;2024-02-26T13:05:27;13.30;78.30
22923;DHT22;11627;51.322;22.816;2024-02-26T13:07:53;13.20;66.40
22923;DHT22;11627;51.322;22.816;2024-02-26T13:10:21;13.20;26.60
22923;DHT22;11627;51.322;22.816;2024-02-26T13:12:49;13.20;14.10
22923;DHT22;11627;51.322;22.816;2024-02-26T13:15:21;13.30;36.40
22923;DHT22;11627;51.322;22.816;2024-02-26T13:17:48;13.20;23.30
22923;DHT22;11627;51.322;22.816;2024-02-26T13:20:28;13.20;12.90
22923;DHT22;11627;51.322;22.816;2024-02-26T13:23:05;13.20;16.60
22923;DHT22;11627;51.322;22.816;2024-02-26T13:25:32;13.30;11.10
22923;DHT22;11627;51.322;22.816;2024-02-26T13:30:57;13.50;11.70
22923;DHT22;11627;51.322;22.816;2024-02-26T13:33:28;13.40;14.50
22923;DHT22;11627;51.322;22.816;2024-02-26T13:35:56;13.50;7.30
22923;DHT22;11627;51.322;22.816;2024-02-26T13:38:24;13.50;16.60
22923;DHT22;11627;51.322;22.816;2024-02-26T13:40:52;13.50;32.10
22923;DHT22;11627;51.322;22.816;2024-02-26T13:43:19;13.40;42.10
22923;DHT22;11627;51.322;22.816;2024-02-26T13:45:46;13.40;52.50
22923;DHT22;11627;51.322;22.816;2024-02-26T13:48:13;13.40;60.80
22923;DHT22;11627;51.322;22.816;2024-02-26T13:50:40;13.50;58.20
22923;DHT22;11627;51.322;22.816;2024-02-26T13:53:08;13.60;52.10
22923;DHT22;11627;51.322;22.816;2024-02-26T13:55:35;13.60;49.00
22923;DHT22;11627;51.322;22.816;2024-02-26T13:58:01;14.30;51.00
22923;DHT22;11627;51.322;22.816;2024-02-26T14:00:29;13.70;55.50
22923;DHT22;11627;51.322;22.816;2024-02-26T14:02:58;13.80;58.40
22923;DHT22;11627;51.322;22.816;2024-02-26T14:05:24;14.00;58.70
22923;DHT22;11627;51.322;22.816;2024-02-26T14:07:50;14.20;39.70
22923;DHT22;11627;51.322;22.816;2024-02-26T14:10:17;14.20;30.60
22923;DHT22;11627;51.322;22.816;2024-02-26T14:12:44;14.10;35.10
22923;DHT22;11627;51.322;22.816;2024-02-26T14:15:10;13.90;35.00
22923;DHT22;11627;51.322;22.816;2024-02-26T14:17:36;13.80;55.30
22923;DHT22;11627;51.322;22.816;2024-02-26T14:20:02;13.80;77.40
22923;DHT22;11627;51.322;22.816;2024-02-26T14:22:29;13.70;82.40
22923;DHT22;11627;51.322;22.816;2024-02-26T14:24:57;13.70;85.40
22923;DHT22;11627;51.322;22.816;2024-02-26T14:27:24;13.70;91.70
22923;DHT22;11627;51.322;22.816;2024-02-26T14:29:50;13.60;94.90
22923;DHT22;11627;51.322;22.816;2024-02-26T14:32:17;13.60;99.90
22923;DHT22;11627;51.322;22.816;2024-02-26T14:34:43;13.60;99.90
22923;DHT22;11627;51.322;22.816;2024-02-26T14:37:10;13.60;99.90
22923;DHT22;11627;51.322;22.816;2024-02-26T14:39:37;13.50;99.90
22923;DHT22;11627;51.322;22.816;2024-02-26T14:42:04;13.50;99.90
22923;DHT22;11627;51.322;22.816;2024-02-26T14:44:30;13.40;99.90
22923;DHT22;11627;51.322;22.816;2024-02-26T14:46:57;13.40;99.90
22923;DHT22;11627;51.322;22.816;2024-02-26T14:49:23;13.30;99.90
22923;DHT22;11627;51.322;22.816;2024-02-26T14:54:18;13.20;99.90
22923;DHT22;11627;51.322;22.816;2024-02-26T14:59:10;13.10;99.90
22923;DHT22;11627;51.322;22.816;2024-02-26T15:01:36;13.00;99.90
22923;DHT22;11627;51.322;22.816;2024-02-26T15:04:02;13.00;99.90
22923;DHT22;11627;51.322;22.816;2024-02-26T15:06:29;12.80;99.90
22923;DHT22;11627;51.322;22.816;2024-02-26T15:08:55;12.60;99.90
22923;DHT22;11627;51.322;22.816;2024-02-26T15:11:23;12.40;99.90
22923;DHT22;11627;51.322;22.816;2024-02-26T15:13:50;12.40;99.90
22923;DHT22;11627;51.322;22.816;2024-02-26T15:16:20;12.30;99.90
22923;DHT22;11627;51.322;22.816;2024-02-26T15:18:46;12.30;99.90
22923;DHT22;11627;51.322;22.816;2024-02-26T15:21:14;12.20;99.90
22923;DHT22;11627;51.322;22.816;2024-02-26T15:23:43;12.20;99.90
22923;DHT22;11627;51.322;22.816;2024-02-26T15:26:10;12.20;99.90
22923;DHT22;11627;51.322;22.816;2024-02-26T15:28:39;12.20;99.90
22923;DHT22;11627;51.322;22.816;2024-02-26T15:33:32;12.00;99.90
22923;DHT22;11627;51.322;22.816;2024-02-26T15:35:57;11.90;99.90
22923;DHT22;11627;51.322;22.816;2024-02-26T15:38:25;11.90;99.90
22923;DHT22;11627;51.322;22.816;2024-02-26T15:40:50;11.80;99.90
22923;DHT22;11627;51.322;22.816;2024-02-26T15:43:16;11.70;99.90
22923;DHT22;11627;51.322;22.816;2024-02-26T15:45:44;11.70;99.90
22923;DHT22;11627;51.322;22.816;2024-02-26T15:48:10;11.70;99.90
22923;DHT22;11627;51.322;22.816;2024-02-26T15:50:36;11.70;99.90
22923;DHT22;11627;51.322;22.816;2024-02-26T15:53:06;11.70;99.90
22923;DHT22;11627;51.322;22.816;2024-02-26T15:55:32;11.60;99.90
22923;DHT22;11627;51.322;22.816;2024-02-26T15:57:59;11.60;99.90
22923;DHT22;11627;51.322;22.816;2024-02-26T16:00:25;11.50;99.90
22923;DHT22;11627;51.322;22.816;2024-02-26T16:02:52;11.50;99.90
22923;DHT22;11627;51.322;22.816;2024-02-26T16:05:18;11.40;99.90
22923;DHT22;11627;51.322;22.816;2024-02-26T16:07:54;11.40;99.90
22923;DHT22;11627;51.322;22.816;2024-02-26T16:10:23;11.50;99.90
22923;DHT22;11627;51.322;22.816;2024-02-26T16:12:56;11.40;99.90
22923;DHT22;11627;51.322;22.816;2024-02-26T16:15:25;11.30;99.90
22923;DHT22;11627;51.322;22.816;2024-02-26T16:17:52;11.40;99.90
22923;DHT22;11627;51.322;22.816;2024-02-26T16:20:22;11.30;99.90
22923;DHT22;11627;51.322;22.816;2024-02-26T16:22:51;11.30;99.90
22923;DHT22;11627;51.322;22.816;2024-02-26T16:25:18;11.30;99.90
22923;DHT22;11627;51.322;22.816;2024-02-26T16:27:44;11.20;99.90
22923;DHT22;11627;51.322;22.816;2024-02-26T16:30:10;11.10;99.90
22923;DHT22;11627;51.322;22.816;2024-02-26T16:32:38;11.00;99.90
22923;DHT22;11627;51.322;22.816;2024-02-26T16:35:05;11.00;99.90
22923;DHT22;11627;51.322;22.816;2024-02-26T16:37:32;10.90;99.90
22923;DHT22;11627;51.322;22.816;2024-02-26T16:40:02;10.90;99.90
22923;DHT22;11627;51.322;22.816;2024-02-26T16:42:37;10.80;99.90
22923;DHT22;11627;51.322;22.816;2024-02-26T16:45:03;10.80;99.90
22923;DHT22;11627;51.322;22.816;2024-02-26T16:47:30;10.70;99.90
22923;DHT22;11627;51.322;22.816;2024-02-26T16:49:56;10.80;99.90
22923;DHT22;11627;51.322;22.816;2024-02-26T16:52:23;10.80;99.90
22923;DHT22;11627;51.322;22.816;2024-02-26T16:54:49;10.70;99.90
22923;DHT22;11627;51.322;22.816;2024-02-26T16:57:15;10.70;99.90
22923;DHT22;11627;51.322;22.816;2024-02-26T16:59:41;10.80;99.90
22923;DHT22;11627;51.322;22.816;2024-02-26T17:02:07;10.80;99.90
22923;DHT22;11627;51.322;22.816;2024-02-26T17:04:33;10.80;99.90
22923;DHT22;11627;51.322;22.816;2024-02-26T17:07:01;10.80;99.90
22923;DHT22;11627;51.322;22.816;2024-02-26T17:09:27;10.80;99.90
22923;DHT22;11627;51.322;22.816;2024-02-26T17:11:54;10.80;99.90
22923;DHT22;11627;51.322;22.816;2024-02-26T17:14:20;10.70;99.90
22923;DHT22;11627;51.322;22.816;2024-02-26T17:16:48;10.80;99.90
22923;DHT22;11627;51.322;22.816;2024-02-26T17:19:14;10.70;99.90
22923;DHT22;11627;51.322;22.816;2024-02-26T17:21:42;10.80;99.90
22923;DHT22;11627;51.322;22.816;2024-02-26T17:24:07;10.90;99.90
22923;DHT22;11627;51.322;22.816;2024-02-26T17:26:34;10.80;99.90
22923;DHT22;11627;51.322;22.816;2024-02-26T17:29:03;10.70;99.90
22923;DHT22;11627;51.322;22.816;2024-02-26T17:31:31;10.70;99.90
22923;DHT22;11627;51.322;22.816;2024-02-26T17:34:00;10.60;99.90
22923;DHT22;11627;51.322;22.816;2024-02-26T17:36:26;10.70;99.90
22923;DHT22;11627;51.322;22.816;2024-02-26T17:38:52;10.80;99.90
22923;DHT22;11627;51.322;22.816;2024-02-26T17:41:19;10.90;99.90
22923;DHT22;11627;51.322;22.816;2024-02-26T17:43:47;11.00;99.90
22923;DHT22;11627;51.322;22.816;2024-02-26T17:46:15;11.10;99.90
22923;DHT22;11627;51.322;22.816;2024-02-26T17:48:41;11.20;99.90
22923;DHT22;11627;51.322;22.816;2024-02-26T17:51:08;11.20;99.90
22923;DHT22;11627;51.322;22.816;2024-02-26T17:53:34;11.20;99.90
22923;DHT22;11627;51.322;22.816;2024-02-26T17:56:00;11.20;99.90
22923;DHT22;11627;51.322;22.816;2024-02-26T17:58:32;11.30;99.90
22923;DHT22;11627;51.322;22.816;2024-02-26T18:00:58;11.30;99.90